createdAt,value
2022-10-06T00:01:11.874Z,11.97
2022-10-06T00:03:39.291Z,12.00
2022-10-06T00:06:07.376Z,12.21
2022-10-06T00:08:36.039Z,12.31
2022-10-06T00:11:03.021Z,12.17
2022-10-06T00:13:30.636Z,12.17
2022-10-06T00:15:57.196Z,12.06
2022-10-06T00:18:23.964Z,12.23
2022-10-06T00:20:58.959Z,12.36
2022-10-06T00:23:26.023Z,12.40
2022-10-06T00:25:52.600Z,12.20
2022-10-06T00:28:19.450Z,12.29
2022-10-06T00:30:46.910Z,12.29
2022-10-06T00:33:16.274Z,12.24
2022-10-06T00:35:43.885Z,12.22
2022-10-06T00:38:16.021Z,12.16
2022-10-06T00:40:47.595Z,12.21
2022-10-06T00:44:11.549Z,12.27
2022-10-06T00:46:46.198Z,12.18
2022-10-06T00:49:35.832Z,12.12
2022-10-06T00:52:11.947Z,12.07
2022-10-06T00:54:38.943Z,12.01
2022-10-06T00:57:06.549Z,12.01
2022-10-06T00:59:34.171Z,11.92
2022-10-06T01:02:07.548Z,11.87
2022-10-06T01:04:36.820Z,11.76
2022-10-06T01:07:03.892Z,11.76
2022-10-06T01:09:31.585Z,11.76
2022-10-06T01:12:01.960Z,11.88
2022-10-06T01:14:29.911Z,11.80
2022-10-06T01:17:02.565Z,11.70
2022-10-06T01:20:02.716Z,11.71
2022-10-06T01:22:31.259Z,11.69
2022-10-06T01:24:58.066Z,11.69
2022-10-06T01:27:28.892Z,11.70
2022-10-06T01:29:57.427Z,11.79
2022-10-06T01:32:26.221Z,11.87
2022-10-06T01:34:52.761Z,11.77
2022-10-06T01:37:19.306Z,11.68
2022-10-06T01:39:45.841Z,11.61
2022-10-06T01:42:12.288Z,11.47
2022-10-06T01:44:38.866Z,11.43
2022-10-06T01:47:06.610Z,11.37
2022-10-06T01:49:33.497Z,11.33
2022-10-06T01:52:00.551Z,11.34
2022-10-06T01:54:27.205Z,11.35
2022-10-06T01:56:53.801Z,11.34
2022-10-06T01:59:20.246Z,11.26
2022-10-06T02:01:47.372Z,11.33
2022-10-06T02:04:14.161Z,11.28
2022-10-06T02:06:40.799Z,11.28
2022-10-06T02:09:07.448Z,11.29
2022-10-06T02:11:34.018Z,11.24
2022-10-06T02:14:01.556Z,11.24
2022-10-06T02:16:28.938Z,11.16
2022-10-06T02:18:55.582Z,11.10
2022-10-06T02:21:23.027Z,11.14
2022-10-06T02:23:49.614Z,11.05
2022-10-06T02:26:20.123Z,10.94
2022-10-06T02:28:47.287Z,10.91
2022-10-06T02:31:14.404Z,10.87
2022-10-06T02:33:41.384Z,10.84
2022-10-06T02:36:10.470Z,10.82
2022-10-06T02:38:36.940Z,10.75
2022-10-06T02:41:03.910Z,10.71
2022-10-06T02:43:31.761Z,10.71
2022-10-06T02:46:08.154Z,10.66
2022-10-06T02:48:35.153Z,10.62
2022-10-06T02:51:07.854Z,10.78
2022-10-06T02:53:35.071Z,10.72
2022-10-06T02:56:06.313Z,10.67
2022-10-06T02:58:33.127Z,10.66
2022-10-06T03:01:08.080Z,10.74
2022-10-06T03:03:35.312Z,10.76
2022-10-06T03:06:02.421Z,10.73
2022-10-06T03:08:29.334Z,10.63
2022-10-06T03:11:01.058Z,10.56
2022-10-06T03:13:27.684Z,10.64
2022-10-06T03:15:54.158Z,10.72
2022-10-06T03:18:21.447Z,10.66
2022-10-06T03:20:48.150Z,10.52
2022-10-06T03:23:14.632Z,10.59
2022-10-06T03:25:41.165Z,10.55
2022-10-06T03:28:07.751Z,10.49
2022-10-06T03:30:34.372Z,10.43
2022-10-06T03:33:01.833Z,10.39
2022-10-06T03:35:28.349Z,10.36
2022-10-06T03:37:54.912Z,10.30
2022-10-06T03:40:21.405Z,10.23
2022-10-06T03:42:47.925Z,10.21
2022-10-06T03:45:14.460Z,10.24
2022-10-06T03:47:40.913Z,10.22
2022-10-06T03:50:07.968Z,10.25
2022-10-06T03:52:34.473Z,10.04
2022-10-06T03:55:01.103Z,10.08
2022-10-06T03:57:27.748Z,10.09
2022-10-06T03:59:55.075Z,10.03
2022-10-06T04:02:21.620Z,9.96
2022-10-06T04:04:48.160Z,9.89
2022-10-06T04:07:14.749Z,9.84
2022-10-06T04:09:41.180Z,9.81
2022-10-06T04:12:08.085Z,9.74
2022-10-06T04:14:34.971Z,9.69
2022-10-06T04:17:01.608Z,9.59
2022-10-06T04:19:28.188Z,9.56
2022-10-06T04:21:54.756Z,9.54
2022-10-06T04:24:21.301Z,9.47
2022-10-06T04:26:50.826Z,9.43
2022-10-06T04:29:17.292Z,9.40
2022-10-06T04:31:43.978Z,9.42
2022-10-06T04:34:13.173Z,9.40
2022-10-06T04:36:41.314Z,9.37
2022-10-06T04:39:10.616Z,9.38
2022-10-06T04:41:39.613Z,9.37
2022-10-06T04:44:07.669Z,9.30
2022-10-06T04:46:43.853Z,9.31
2022-10-06T04:49:17.933Z,9.27
2022-10-06T04:51:46.642Z,9.21
2022-10-06T04:54:13.187Z,9.12
2022-10-06T04:56:39.738Z,9.10
2022-10-06T04:59:06.258Z,9.07
2022-10-06T05:01:36.085Z,9.05
2022-10-06T05:04:04.035Z,9.03
2022-10-06T05:06:33.339Z,8.95
2022-10-06T05:09:02.828Z,8.94
2022-10-06T05:11:29.889Z,8.88
2022-10-06T05:13:57.882Z,8.88
2022-10-06T05:16:26.912Z,8.90
2022-10-06T05:18:53.587Z,8.85
2022-10-06T05:21:23.170Z,8.83
2022-10-06T05:23:50.584Z,8.80
2022-10-06T05:26:20.477Z,8.75
2022-10-06T05:28:47.741Z,8.73
2022-10-06T05:31:17.075Z,8.68
2022-10-06T05:33:43.988Z,8.71
2022-10-06T05:36:15.821Z,8.73
2022-10-06T05:38:44.014Z,8.65
2022-10-06T05:41:19.096Z,8.65
2022-10-06T05:43:45.890Z,8.68
2022-10-06T05:46:17.620Z,8.63
2022-10-06T05:48:52.562Z,8.62
2022-10-06T05:51:20.567Z,8.45
2022-10-06T05:53:48.578Z,8.53
2022-10-06T05:56:21.714Z,8.57
2022-10-06T05:58:50.942Z,8.59
2022-10-06T06:01:32.683Z,8.54
2022-10-06T06:04:02.776Z,8.55
2022-10-06T06:06:37.787Z,8.55
2022-10-06T06:09:08.794Z,8.55
2022-10-06T06:11:37.439Z,8.56
2022-10-06T06:14:06.658Z,8.55
2022-10-06T06:16:34.395Z,8.52
2022-10-06T06:19:01.355Z,8.52
2022-10-06T06:21:29.018Z,8.52
2022-10-06T06:23:55.802Z,8.60
2022-10-06T06:26:23.636Z,8.65
2022-10-06T06:28:51.581Z,8.61
2022-10-06T06:31:26.471Z,8.70
2022-10-06T06:33:56.448Z,8.70
2022-10-06T06:36:31.951Z,8.73
2022-10-06T06:38:58.881Z,8.84
2022-10-06T06:41:28.641Z,8.90
2022-10-06T06:43:56.212Z,9.03
2022-10-06T06:46:25.372Z,9.09
2022-10-06T06:48:52.883Z,9.23
2022-10-06T06:51:22.989Z,9.32
2022-10-06T06:53:51.014Z,9.47
2022-10-06T06:56:17.681Z,9.57
2022-10-06T06:58:48.489Z,9.65
2022-10-06T07:01:21.475Z,9.81
2022-10-06T07:03:58.055Z,9.88
2022-10-06T07:06:30.431Z,10.07
2022-10-06T07:08:58.837Z,10.27
2022-10-06T07:11:31.296Z,10.35
2022-10-06T07:14:04.221Z,10.48
2022-10-06T07:16:51.110Z,10.63
2022-10-06T07:19:38.276Z,10.69
2022-10-06T07:22:26.610Z,10.77
2022-10-06T07:25:11.706Z,10.85
2022-10-06T07:27:43.983Z,11.02
2022-10-06T07:30:19.306Z,11.05
2022-10-06T07:32:47.259Z,11.14
2022-10-06T07:35:16.220Z,11.18
2022-10-06T07:37:43.281Z,11.34
2022-10-06T07:40:10.880Z,11.51
2022-10-06T07:42:48.515Z,11.46
2022-10-06T07:45:36.153Z,11.60
2022-10-06T07:48:07.863Z,11.75
2022-10-06T07:50:38.033Z,11.79
2022-10-06T07:53:09.292Z,11.94
2022-10-06T07:55:41.328Z,11.95
2022-10-06T07:58:23.953Z,11.94
2022-10-06T08:00:52.774Z,12.11
2022-10-06T08:03:20.299Z,12.15
2022-10-06T08:05:49.236Z,12.19
2022-10-06T08:08:16.717Z,12.22
2022-10-06T08:10:51.775Z,12.30
2022-10-06T08:13:18.170Z,12.42
2022-10-06T08:15:45.656Z,12.61
2022-10-06T08:18:27.279Z,12.68
2022-10-06T08:20:59.367Z,12.65
2022-10-06T08:23:26.423Z,12.78
2022-10-06T08:25:54.323Z,12.95
2022-10-06T08:28:22.296Z,12.92
2022-10-06T08:30:51.451Z,12.94
2022-10-06T08:33:21.239Z,12.98
2022-10-06T08:35:48.179Z,13.15
2022-10-06T08:38:14.817Z,13.12
2022-10-06T08:40:43.925Z,13.20
2022-10-06T08:43:19.999Z,13.22
2022-10-06T08:45:47.756Z,13.31
2022-10-06T08:48:18.668Z,13.32
2022-10-06T08:51:10.140Z,13.43
2022-10-06T08:54:11.811Z,13.57
2022-10-06T08:56:59.014Z,13.82
2022-10-06T08:59:25.578Z,13.82
2022-10-06T09:01:54.656Z,13.81
2022-10-06T09:04:29.289Z,13.98
2022-10-06T09:07:10.670Z,14.03
2022-10-06T09:09:39.253Z,14.18
2022-10-06T09:12:21.604Z,14.20
2022-10-06T09:14:57.174Z,14.42
2022-10-06T09:17:38.220Z,14.50
2022-10-06T09:20:32.797Z,14.42
2022-10-06T09:23:01.900Z,14.25
2022-10-06T09:25:30.582Z,14.44
2022-10-06T09:27:59.525Z,14.49
2022-10-06T09:30:26.450Z,14.63
2022-10-06T09:32:59.997Z,14.76
2022-10-06T09:35:29.657Z,14.95
2022-10-06T09:37:57.429Z,15.01
2022-10-06T09:40:38.661Z,15.08
2022-10-06T09:43:28.127Z,15.04
2022-10-06T09:45:56.539Z,15.25
2022-10-06T09:48:27.060Z,15.44
2022-10-06T09:51:14.609Z,15.39
2022-10-06T09:54:10.704Z,15.26
2022-10-06T09:56:47.150Z,15.05
2022-10-06T09:59:39.770Z,14.98
2022-10-06T10:02:30.513Z,15.00
2022-10-06T10:04:57.985Z,15.04
2022-10-06T10:07:30.163Z,15.07
2022-10-06T10:10:22.957Z,15.20
2022-10-06T10:13:00.117Z,15.19
2022-10-06T10:15:40.430Z,15.18
2022-10-06T10:18:13.983Z,15.11
2022-10-06T10:20:59.782Z,15.13
2022-10-06T10:23:33.409Z,15.11
2022-10-06T10:26:17.989Z,15.14
2022-10-06T10:29:03.327Z,15.15
2022-10-06T10:31:41.390Z,15.17
2022-10-06T10:36:56.411Z,15.24
2022-10-06T10:39:35.002Z,15.30
2022-10-06T10:42:10.073Z,15.44
2022-10-06T10:44:43.034Z,15.46
2022-10-06T10:47:47.032Z,15.50
2022-10-06T10:50:44.041Z,15.40
2022-10-06T10:53:20.112Z,15.13
2022-10-06T10:55:48.618Z,14.88
2022-10-06T10:58:24.978Z,14.67
2022-10-06T11:00:58.082Z,14.63
2022-10-06T11:03:24.860Z,14.56
2022-10-06T11:06:14.817Z,14.60
2022-10-06T11:09:01.451Z,14.93
2022-10-06T11:11:51.276Z,15.25
2022-10-06T11:14:40.458Z,15.41
2022-10-06T11:17:16.105Z,15.70
2022-10-06T11:20:08.702Z,15.64
2022-10-06T11:23:03.141Z,15.75
2022-10-06T11:25:35.267Z,15.75
2022-10-06T11:28:14.589Z,15.77
2022-10-06T11:30:50.944Z,15.79
2022-10-06T11:33:46.875Z,15.61
2022-10-06T11:36:20.480Z,15.37
2022-10-06T11:38:58.389Z,15.48
2022-10-06T11:41:49.435Z,15.51
2022-10-06T11:44:39.079Z,15.51
2022-10-06T11:47:10.517Z,15.63
2022-10-06T11:49:51.464Z,15.64
2022-10-06T11:52:18.066Z,15.68
2022-10-06T11:54:44.741Z,15.67
2022-10-06T11:58:01.010Z,15.81
2022-10-06T12:00:34.492Z,15.75
2022-10-06T12:03:28.672Z,15.71
2022-10-06T12:05:56.841Z,15.71
2022-10-06T12:08:38.940Z,15.66
2022-10-06T12:11:41.681Z,15.73
2022-10-06T12:17:33.513Z,15.73
2022-10-06T12:20:22.829Z,15.78
2022-10-06T12:22:56.337Z,15.77
2022-10-06T12:25:33.586Z,15.65
2022-10-06T12:28:26.685Z,15.69
2022-10-06T12:31:19.525Z,15.81
2022-10-06T12:33:46.336Z,15.70
2022-10-06T12:36:32.145Z,15.74
2022-10-06T12:39:02.124Z,15.73
2022-10-06T12:41:56.531Z,15.64
2022-10-06T12:44:26.032Z,15.48
2022-10-06T12:46:54.897Z,15.39
2022-10-06T12:49:34.362Z,15.43
2022-10-06T12:52:18.482Z,15.54
2022-10-06T12:55:20.361Z,15.61
2022-10-06T12:57:52.104Z,15.70
2022-10-06T13:00:22.817Z,15.74
2022-10-06T13:02:49.545Z,15.83
2022-10-06T13:05:16.141Z,15.84
2022-10-06T13:07:57.502Z,15.73
2022-10-06T13:10:24.191Z,15.63
2022-10-06T13:12:52.204Z,15.49
2022-10-06T13:15:25.220Z,15.24
2022-10-06T13:17:55.008Z,15.08
2022-10-06T13:20:23.290Z,14.96
2022-10-06T13:22:59.083Z,14.91
2022-10-06T13:25:31.098Z,14.85
2022-10-06T13:27:57.673Z,14.85
2022-10-06T13:30:24.392Z,15.05
2022-10-06T13:32:55.577Z,15.17
2022-10-06T13:35:26.097Z,15.31
2022-10-06T13:37:54.045Z,15.46
2022-10-06T13:40:45.914Z,15.41
2022-10-06T13:43:18.264Z,15.51
2022-10-06T13:45:48.326Z,15.53
2022-10-06T13:48:18.830Z,15.59
2022-10-06T13:50:47.675Z,15.61
2022-10-06T13:53:32.156Z,15.61
2022-10-06T13:55:59.171Z,15.57
2022-10-06T13:58:27.875Z,15.63
2022-10-06T14:01:00.957Z,15.53
2022-10-06T14:06:21.308Z,15.47
2022-10-06T14:08:57.833Z,15.62
2022-10-06T14:11:28.093Z,15.64
2022-10-06T14:14:15.982Z,15.53
2022-10-06T14:16:48.810Z,15.54
2022-10-06T14:19:36.832Z,15.65
2022-10-06T14:22:05.293Z,15.71
2022-10-06T14:24:37.409Z,15.85
2022-10-06T14:27:06.122Z,15.83
2022-10-06T14:29:34.171Z,15.65
2022-10-06T14:32:14.690Z,15.65
2022-10-06T14:34:42.042Z,15.68
2022-10-06T14:37:15.423Z,15.65
2022-10-06T14:39:43.388Z,15.43
2022-10-06T14:42:11.560Z,15.48
2022-10-06T14:44:38.636Z,15.47
2022-10-06T14:47:06.659Z,15.39
2022-10-06T14:49:33.439Z,15.42
2022-10-06T14:52:00.522Z,15.40
2022-10-06T14:54:27.053Z,15.37
2022-10-06T14:56:53.799Z,15.33
2022-10-06T14:59:21.405Z,15.21
2022-10-06T15:01:49.509Z,15.26
2022-10-06T15:04:20.728Z,15.15
2022-10-06T15:07:05.668Z,15.06
2022-10-06T15:09:32.741Z,15.03
2022-10-06T15:12:00.139Z,14.95
2022-10-06T15:14:28.447Z,14.81
2022-10-06T15:16:58.998Z,14.82
2022-10-06T15:19:25.662Z,14.75
2022-10-06T15:21:52.221Z,14.68
2022-10-06T15:24:19.752Z,14.67
2022-10-06T15:27:05.904Z,14.58
2022-10-06T15:29:34.703Z,14.55
2022-10-06T15:32:02.716Z,14.47
2022-10-06T15:34:31.914Z,14.48
2022-10-06T15:37:00.109Z,14.43
2022-10-06T15:39:29.398Z,14.32
2022-10-06T15:41:56.241Z,14.27
2022-10-06T15:44:23.471Z,14.22
2022-10-06T15:46:52.292Z,14.06
2022-10-06T15:49:23.984Z,14.00
2022-10-06T15:51:51.677Z,13.90
2022-10-06T15:54:20.912Z,13.95
2022-10-06T15:56:50.399Z,13.86
2022-10-06T15:59:19.708Z,13.80
2022-10-06T16:01:47.804Z,13.82
2022-10-06T16:04:29.218Z,13.66
2022-10-06T16:06:56.264Z,13.58
2022-10-06T16:09:30.894Z,13.56
2022-10-06T16:12:03.716Z,13.50
2022-10-06T16:14:31.443Z,13.53
2022-10-06T16:17:02.555Z,13.50
2022-10-06T16:19:31.117Z,13.36
2022-10-06T16:21:59.321Z,13.41
2022-10-06T16:24:26.583Z,13.34
2022-10-06T16:26:54.084Z,13.23
2022-10-06T16:29:21.755Z,13.19
2022-10-06T16:31:49.097Z,13.16
2022-10-06T16:34:16.304Z,13.03
2022-10-06T16:36:42.992Z,12.97
2022-10-06T16:39:15.519Z,13.00
2022-10-06T16:41:42.309Z,12.93
2022-10-06T16:44:08.990Z,12.83
2022-10-06T16:46:35.753Z,12.66
2022-10-06T16:49:03.478Z,12.81
2022-10-06T16:51:32.906Z,12.70
2022-10-06T16:54:02.946Z,12.66
2022-10-06T16:56:40.967Z,12.74
2022-10-06T16:59:16.266Z,12.59
2022-10-06T17:01:43.103Z,12.44
2022-10-06T17:04:14.778Z,12.46
2022-10-06T17:06:44.771Z,12.33
2022-10-06T17:09:14.504Z,12.24
2022-10-06T17:11:43.784Z,12.18
2022-10-06T17:14:10.786Z,12.13
2022-10-06T17:16:41.244Z,12.03
2022-10-06T17:19:09.326Z,11.97
2022-10-06T17:21:57.411Z,11.94
2022-10-06T17:24:25.467Z,11.82
2022-10-06T17:26:52.802Z,11.75
2022-10-06T17:29:23.211Z,11.72
2022-10-06T17:31:58.994Z,11.64
2022-10-06T17:34:31.773Z,11.50
2022-10-06T17:37:01.076Z,11.43
2022-10-06T17:39:27.610Z,11.43
2022-10-06T17:41:54.469Z,11.36
2022-10-06T17:44:23.750Z,11.34
2022-10-06T17:46:53.131Z,11.27
2022-10-06T17:49:22.210Z,11.24
2022-10-06T17:51:50.477Z,11.15
2022-10-06T17:54:20.165Z,11.11
2022-10-06T17:56:49.351Z,11.05
2022-10-06T17:59:19.904Z,10.99
2022-10-06T18:01:46.485Z,10.92
2022-10-06T18:04:16.189Z,10.83
2022-10-06T18:06:44.460Z,10.79
2022-10-06T18:09:11.886Z,10.71
2022-10-06T18:11:41.508Z,10.65
2022-10-06T18:14:07.980Z,10.61
2022-10-06T18:16:37.832Z,10.53
2022-10-06T18:19:09.605Z,10.45
2022-10-06T18:21:38.857Z,10.42
2022-10-06T18:24:13.356Z,10.45
2022-10-06T18:26:41.946Z,10.38
2022-10-06T18:29:10.134Z,10.41
2022-10-06T18:31:38.430Z,10.31
2022-10-06T18:36:52.765Z,10.18
2022-10-06T18:39:19.573Z,10.14
2022-10-06T18:41:47.631Z,10.04
2022-10-06T18:44:14.231Z,10.01
2022-10-06T18:46:59.504Z,9.94
2022-10-06T18:49:26.029Z,9.89
2022-10-06T18:51:58.256Z,9.84
2022-10-06T18:54:31.189Z,9.82
2022-10-06T18:56:58.175Z,9.75
2022-10-06T18:59:31.036Z,9.71
2022-10-06T19:02:00.406Z,9.62
2022-10-06T19:04:27.045Z,9.61
2022-10-06T19:06:55.469Z,9.53
2022-10-06T19:09:23.802Z,9.51
2022-10-06T19:11:58.771Z,9.49
2022-10-06T19:14:33.205Z,9.44
2022-10-06T19:17:05.834Z,9.37
2022-10-06T19:19:33.945Z,9.30
2022-10-06T19:22:02.871Z,9.27
2022-10-06T19:24:41.643Z,9.11
2022-10-06T19:27:20.669Z,9.22
2022-10-06T19:29:54.237Z,9.12
2022-10-06T19:32:24.262Z,9.16
2022-10-06T19:34:50.826Z,9.15
2022-10-06T19:37:17.317Z,9.09
2022-10-06T19:39:45.881Z,9.09
2022-10-06T19:42:36.670Z,9.06
2022-10-06T19:45:05.577Z,9.04
2022-10-06T19:47:32.344Z,8.93
2022-10-06T19:50:02.881Z,8.96
2022-10-06T19:52:31.491Z,8.90
2022-10-06T19:54:58.482Z,8.96
2022-10-06T19:57:28.507Z,8.86
2022-10-06T19:59:55.030Z,8.88
2022-10-06T20:02:21.596Z,8.82
2022-10-06T20:04:49.804Z,8.77
2022-10-06T20:07:16.471Z,8.75
2022-10-06T20:09:44.032Z,8.70
2022-10-06T20:12:10.560Z,8.66
2022-10-06T20:14:37.049Z,8.68
2022-10-06T20:17:03.624Z,8.71
2022-10-06T20:19:30.991Z,8.67
2022-10-06T20:21:58.171Z,8.60
2022-10-06T20:24:24.860Z,8.56
2022-10-06T20:26:52.992Z,8.59
2022-10-06T20:29:25.305Z,8.52
2022-10-06T20:31:54.999Z,8.58
2022-10-06T20:34:31.978Z,8.51
2022-10-06T20:37:03.821Z,8.48
2022-10-06T20:39:50.559Z,8.47
2022-10-06T20:42:19.146Z,8.39
2022-10-06T20:44:45.962Z,8.42
2022-10-06T20:47:13.277Z,8.36
2022-10-06T20:49:42.408Z,8.39
2022-10-06T20:52:09.840Z,8.37
2022-10-06T20:54:37.439Z,8.34
2022-10-06T20:57:06.473Z,8.30
2022-10-06T20:59:35.489Z,8.30
2022-10-06T21:02:02.724Z,8.30
2022-10-06T21:04:30.072Z,8.26
2022-10-06T21:06:57.279Z,8.26
2022-10-06T21:09:28.676Z,8.22
2022-10-06T21:11:57.292Z,8.18
2022-10-06T21:14:23.764Z,8.18
2022-10-06T21:16:50.902Z,8.13
2022-10-06T21:19:19.260Z,8.12
2022-10-06T21:21:51.811Z,8.11
2022-10-06T21:24:19.430Z,8.04
2022-10-06T21:26:45.959Z,8.01
2022-10-06T21:29:15.303Z,7.94
2022-10-06T21:31:43.039Z,7.98
2022-10-06T21:34:10.437Z,7.96
2022-10-06T21:36:37.284Z,7.93
2022-10-06T21:39:05.660Z,7.87
2022-10-06T21:41:40.199Z,7.91
2022-10-06T21:44:09.510Z,7.94
2022-10-06T21:46:42.258Z,7.89
2022-10-06T21:49:14.678Z,7.84
2022-10-06T21:51:42.462Z,7.87
2022-10-06T21:54:12.334Z,7.77
2022-10-06T21:56:39.838Z,7.79
2022-10-06T21:59:07.134Z,7.78
2022-10-06T22:01:38.688Z,7.83
2022-10-06T22:04:05.689Z,7.83
2022-10-06T22:06:34.112Z,7.80
2022-10-06T22:09:01.027Z,7.87
2022-10-06T22:11:29.765Z,7.87
2022-10-06T22:13:59.133Z,7.86
2022-10-06T22:16:28.451Z,7.89
2022-10-06T22:18:55.448Z,7.94
2022-10-06T22:21:28.198Z,7.99
2022-10-06T22:23:56.819Z,8.05
2022-10-06T22:26:24.263Z,8.02
2022-10-06T22:28:53.422Z,8.16
2022-10-06T22:31:25.480Z,8.22
2022-10-06T22:33:55.761Z,8.19
2022-10-06T22:36:22.792Z,8.07
2022-10-06T22:38:49.288Z,8.13
2022-10-06T22:41:16.501Z,8.10
2022-10-06T22:43:43.058Z,8.14
2022-10-06T22:46:10.696Z,8.15
2022-10-06T22:48:37.362Z,8.14
2022-10-06T22:51:04.825Z,8.13
2022-10-06T22:53:31.864Z,8.16
2022-10-06T22:55:59.559Z,8.15
2022-10-06T22:58:27.467Z,8.18
2022-10-06T23:00:55.091Z,8.14
2022-10-06T23:03:22.325Z,8.20
2022-10-06T23:06:00.039Z,8.10
2022-10-06T23:08:31.397Z,8.17
2022-10-06T23:11:13.819Z,8.18
2022-10-06T23:13:41.441Z,8.26
2022-10-06T23:16:10.258Z,8.17
2022-10-06T23:18:39.968Z,8.27
2022-10-06T23:21:18.923Z,8.32
2022-10-06T23:23:46.474Z,8.30
2022-10-06T23:26:14.821Z,8.28
2022-10-06T23:28:41.993Z,8.35
2022-10-06T23:31:10.861Z,8.42
2022-10-06T23:33:38.161Z,8.42
2022-10-06T23:36:09.945Z,8.39
2022-10-06T23:38:38.126Z,8.50
2022-10-06T23:41:06.299Z,8.46
2022-10-06T23:43:33.186Z,8.41
2022-10-06T23:46:00.087Z,8.32
2022-10-06T23:48:26.891Z,8.41
2022-10-06T23:51:06.560Z,8.43
2022-10-06T23:53:34.158Z,8.47
2022-10-06T23:56:01.013Z,8.46
2022-10-06T23:58:28.046Z,8.47
